createdAt,value
2022-11-13T00:02:55.907Z,5.53
2022-11-13T00:08:16.234Z,4.57
2022-11-13T00:18:56.806Z,5.40
2022-11-13T00:29:37.368Z,5.35
2022-11-13T00:34:57.884Z,5.95
2022-11-13T00:40:18.336Z,6.47
2022-11-13T00:45:38.518Z,6.50
2022-11-13T00:50:59.205Z,6.18
2022-11-13T00:56:19.433Z,6.80
2022-11-13T01:07:00.115Z,5.82
2022-11-13T01:12:20.388Z,6.18
2022-11-13T01:17:40.864Z,5.60
2022-11-13T01:28:21.566Z,5.60
2022-11-13T01:33:41.809Z,5.63
2022-11-13T01:39:02.290Z,4.78
2022-11-13T01:49:44.614Z,5.87
2022-11-13T01:55:13.229Z,5.88
2022-11-13T02:00:33.653Z,6.28
2022-11-13T02:05:54.962Z,6.90
2022-11-13T02:11:15.416Z,6.65
2022-11-13T02:16:38.202Z,5.80
2022-11-13T02:22:20.276Z,7.32
2022-11-13T02:27:40.777Z,6.25
2022-11-13T02:38:21.500Z,7.90
2022-11-13T02:43:41.670Z,7.53
2022-11-13T02:54:22.389Z,6.73
2022-11-13T02:59:42.478Z,6.82
2022-11-13T03:05:11.852Z,6.95
2022-11-13T03:10:32.999Z,7.78
2022-11-13T03:15:53.431Z,7.32
2022-11-13T03:21:15.445Z,7.50
2022-11-13T03:26:36.167Z,7.10
2022-11-13T03:31:56.412Z,6.45
2022-11-13T03:37:16.844Z,7.47
2022-11-13T03:42:37.219Z,7.28
2022-11-13T03:47:57.619Z,5.97
2022-11-13T03:53:18.258Z,6.43
2022-11-13T03:58:40.443Z,6.13
2022-11-13T04:04:00.964Z,5.50
2022-11-13T04:14:41.427Z,5.67
2022-11-13T04:20:01.900Z,6.13
2022-11-13T04:25:22.353Z,6.07
2022-11-13T04:30:42.805Z,6.60
2022-11-13T04:41:41.869Z,6.30
2022-11-13T04:47:02.063Z,6.30
2022-11-13T04:57:43.094Z,6.28
2022-11-13T05:03:03.592Z,6.32
2022-11-13T05:08:23.949Z,6.13
2022-11-13T05:19:07.085Z,6.13
2022-11-13T05:24:27.745Z,6.00
2022-11-13T05:29:47.929Z,6.22
2022-11-13T05:35:08.654Z,6.20
2022-11-13T05:40:30.044Z,5.07
2022-11-13T05:45:50.445Z,5.00
2022-11-13T05:51:19.567Z,5.03
2022-11-13T05:56:40.606Z,4.63
2022-11-13T06:02:01.474Z,4.28
2022-11-13T06:07:22.351Z,4.30
2022-11-13T06:12:42.931Z,4.50
2022-11-13T06:23:23.566Z,4.20
2022-11-13T06:28:44.478Z,4.05
2022-11-13T06:34:06.305Z,4.00
2022-11-13T06:39:27.390Z,4.75
2022-11-13T06:44:47.906Z,4.82
2022-11-13T06:55:28.396Z,5.07
2022-11-13T07:00:48.923Z,4.82
2022-11-13T07:06:14.166Z,5.20
2022-11-13T07:11:34.736Z,9.27
2022-11-13T07:22:33.176Z,5.55
2022-11-13T07:27:53.497Z,6.30
2022-11-13T07:33:13.745Z,5.65
2022-11-13T07:43:54.394Z,5.80
2022-11-13T07:49:14.755Z,6.03
2022-11-13T07:59:55.569Z,13.05
2022-11-13T08:05:16.803Z,6.35
2022-11-13T08:10:37.272Z,5.57
2022-11-13T08:16:01.788Z,5.35
2022-11-13T08:21:21.922Z,5.97
2022-11-13T08:26:42.331Z,5.78
2022-11-13T08:32:04.498Z,5.45
2022-11-13T08:37:25.313Z,5.90
2022-11-13T08:42:46.079Z,6.28
2022-11-13T08:48:06.677Z,5.90
2022-11-13T08:53:26.999Z,5.63
2022-11-13T08:58:47.383Z,5.70
2022-11-13T09:04:08.053Z,5.70
2022-11-13T09:09:28.491Z,6.10
2022-11-13T09:14:49.108Z,5.80
2022-11-13T09:20:13.537Z,5.32
2022-11-13T09:25:38.019Z,5.75
2022-11-13T09:30:58.859Z,6.13
2022-11-13T09:41:45.606Z,5.57
2022-11-13T09:47:32.016Z,5.88
2022-11-13T09:52:53.817Z,5.60
2022-11-13T09:58:24.272Z,6.13
2022-11-13T10:04:04.996Z,6.53
2022-11-13T10:09:48.414Z,7.23
2022-11-13T10:15:10.812Z,6.93
2022-11-13T10:20:44.898Z,6.53
2022-11-13T10:26:18.612Z,6.60
2022-11-13T10:31:45.219Z,7.32
2022-11-13T10:37:43.333Z,8.10
2022-11-13T10:43:24.474Z,7.00
2022-11-13T10:48:44.706Z,7.22
2022-11-13T10:54:29.734Z,7.22
2022-11-13T10:59:49.897Z,6.22
2022-11-13T11:05:26.322Z,6.75
2022-11-13T11:11:15.807Z,6.88
2022-11-13T11:16:37.524Z,6.78
2022-11-13T11:22:31.630Z,6.25
2022-11-13T11:28:07.995Z,6.90
2022-11-13T11:33:36.901Z,12.80
2022-11-13T11:39:15.557Z,7.05
2022-11-13T11:45:01.161Z,7.18
2022-11-13T11:50:51.048Z,7.25
2022-11-13T11:56:44.800Z,8.45
2022-11-13T12:02:34.035Z,15.88
2022-11-13T12:08:27.516Z,8.45
2022-11-13T12:14:17.381Z,8.25
2022-11-13T12:20:00.907Z,7.47
2022-11-13T12:25:42.103Z,8.32
2022-11-13T12:31:39.077Z,8.15
2022-11-13T12:37:02.233Z,8.45
2022-11-13T12:42:34.553Z,8.00
2022-11-13T12:47:54.635Z,8.30
2022-11-13T12:53:26.538Z,7.38
2022-11-13T13:04:59.049Z,6.90
2022-11-13T13:10:56.897Z,7.18
2022-11-13T13:16:25.020Z,7.55
2022-11-13T13:21:45.418Z,7.80
2022-11-13T13:27:23.854Z,7.45
2022-11-13T13:33:05.037Z,7.28
2022-11-13T13:38:34.221Z,8.05
2022-11-13T13:44:13.713Z,6.68
2022-11-13T13:49:34.068Z,8.15
2022-11-13T13:54:54.846Z,8.63
2022-11-13T14:00:19.135Z,8.30
2022-11-13T14:05:39.387Z,9.50
2022-11-13T14:11:15.167Z,9.45
2022-11-13T14:17:13.162Z,10.65
2022-11-13T14:22:33.868Z,11.77
2022-11-13T14:27:54.224Z,22.30
2022-11-13T14:38:52.069Z,11.10
2022-11-13T14:44:13.095Z,10.32
2022-11-13T14:49:38.135Z,11.45
2022-11-13T14:55:15.210Z,12.25
2022-11-13T15:00:38.784Z,11.82
2022-11-13T15:06:02.450Z,12.63
2022-11-13T15:11:27.101Z,12.27
2022-11-13T15:16:50.065Z,12.00
2022-11-13T15:22:30.526Z,12.52
2022-11-13T15:27:51.410Z,13.55
2022-11-13T15:33:16.516Z,12.77
2022-11-13T15:38:37.177Z,13.07
2022-11-13T15:54:40.488Z,13.27
2022-11-13T16:00:02.106Z,13.98
2022-11-13T16:05:29.570Z,15.50
2022-11-13T16:10:51.773Z,15.15
2022-11-13T16:16:37.285Z,17.35
2022-11-13T16:21:58.535Z,22.05
2022-11-13T16:27:26.893Z,19.65
2022-11-13T16:32:48.098Z,18.27
2022-11-13T16:38:13.485Z,19.15
2022-11-13T16:43:36.042Z,19.50
2022-11-13T16:48:56.675Z,18.10
2022-11-13T16:54:17.208Z,17.83
2022-11-13T16:59:38.214Z,21.80
2022-11-13T17:05:03.786Z,18.60
2022-11-13T17:10:33.407Z,18.63
2022-11-13T17:15:54.581Z,18.90
2022-11-13T17:21:16.098Z,18.73
2022-11-13T17:26:37.079Z,18.17
2022-11-13T17:31:57.961Z,19.00
2022-11-13T17:42:44.591Z,19.73
2022-11-13T17:48:05.279Z,23.73
2022-11-13T17:53:25.938Z,21.60
2022-11-13T17:58:47.064Z,21.30
2022-11-13T18:04:08.990Z,20.70
2022-11-13T18:09:29.554Z,21.50
2022-11-13T18:14:56.476Z,22.33
2022-11-13T18:20:17.660Z,20.98
2022-11-13T18:25:39.592Z,21.95
2022-11-13T18:31:06.430Z,22.83
2022-11-13T18:36:26.709Z,20.92
2022-11-13T18:41:47.266Z,20.85
2022-11-13T18:52:28.651Z,21.58
2022-11-13T18:57:49.341Z,22.90
2022-11-13T19:03:09.979Z,22.27
2022-11-13T19:08:30.873Z,22.27
2022-11-13T19:13:52.673Z,22.17
2022-11-13T19:19:22.147Z,23.30
2022-11-13T19:24:42.990Z,22.80
2022-11-13T19:30:04.287Z,23.25
2022-11-13T19:35:26.959Z,22.98
2022-11-13T19:40:53.243Z,23.88
2022-11-13T19:46:15.960Z,22.58
2022-11-13T19:51:36.586Z,22.15
2022-11-13T20:02:17.433Z,21.83
2022-11-13T20:07:38.305Z,22.10
2022-11-13T20:12:58.883Z,21.90
2022-11-13T20:23:40.314Z,23.77
2022-11-13T20:29:01.275Z,22.92
2022-11-13T20:34:21.946Z,23.13
2022-11-13T20:39:42.486Z,21.52
2022-11-13T20:45:05.184Z,22.73
2022-11-13T20:50:25.666Z,21.67
2022-11-13T20:55:46.089Z,21.65
2022-11-13T21:01:09.042Z,21.45
2022-11-13T21:06:29.677Z,20.30
2022-11-13T21:11:49.670Z,20.73
2022-11-13T21:17:10.240Z,21.73
2022-11-13T21:22:30.388Z,20.05
2022-11-13T21:33:11.148Z,20.10
2022-11-13T21:38:32.318Z,20.30
2022-11-13T21:44:04.730Z,20.58
2022-11-13T21:49:24.887Z,18.38
2022-11-13T21:54:45.008Z,18.05
2022-11-13T22:00:06.003Z,16.73
2022-11-13T22:05:26.414Z,16.90
2022-11-13T22:10:46.907Z,16.88
2022-11-13T22:16:09.514Z,16.40
2022-11-13T22:21:30.647Z,15.60
2022-11-13T22:26:51.061Z,14.70
2022-11-13T22:37:31.948Z,14.55
2022-11-13T22:42:55.128Z,14.45
2022-11-13T22:48:15.472Z,14.05
2022-11-13T22:53:36.318Z,15.63
2022-11-13T22:58:58.941Z,13.50
2022-11-13T23:04:19.060Z,12.20
2022-11-13T23:09:39.479Z,14.02
2022-11-13T23:14:59.893Z,14.48
2022-11-13T23:20:20.173Z,13.52
2022-11-13T23:25:40.446Z,13.40
2022-11-13T23:31:00.997Z,13.50
2022-11-13T23:36:21.387Z,13.05
2022-11-13T23:41:41.916Z,12.80
2022-11-13T23:47:03.300Z,12.60
2022-11-13T23:52:23.804Z,13.82
2022-11-13T23:57:44.196Z,12.60
